地図

経路データ

SID SEASON NUMBER BASIN SUBBASIN NAME ISO_TIME NATURE LAT LON WMO_WIND WMO_PRES WMO_AGENCY TRACK_TYPE DIST2LAND LANDFALL IFLAG USA_AGENCY USA_ATCF_ID USA_LAT USA_LON USA_RECORD USA_STATUS USA_WIND USA_PRES USA_SSHS USA_R34_NE USA_R34_SE USA_R34_SW USA_R34_NW USA_R50_NE USA_R50_SE USA_R50_SW USA_R50_NW USA_R64_NE USA_R64_SE USA_R64_SW USA_R64_NW USA_POCI USA_ROCI USA_RMW USA_EYE TOKYO_LAT TOKYO_LON TOKYO_GRADE TOKYO_WIND TOKYO_PRES TOKYO_R50_DIR TOKYO_R50_LONG TOKYO_R50_SHORT TOKYO_R30_DIR TOKYO_R30_LONG TOKYO_R30_SHORT TOKYO_LAND CMA_LAT CMA_LON CMA_CAT CMA_WIND CMA_PRES HKO_LAT HKO_LON HKO_CAT HKO_WIND HKO_PRES NEWDELHI_LAT NEWDELHI_LON NEWDELHI_GRADE NEWDELHI_WIND NEWDELHI_PRES NEWDELHI_CI NEWDELHI_DP NEWDELHI_POCI REUNION_LAT REUNION_LON REUNION_TYPE REUNION_WIND REUNION_PRES REUNION_TNUM REUNION_CI REUNION_RMW REUNION_R34_NE REUNION_R34_SE REUNION_R34_SW REUNION_R34_NW REUNION_R50_NE REUNION_R50_SE REUNION_R50_SW REUNION_R50_NW REUNION_R64_NE REUNION_R64_SE REUNION_R64_SW REUNION_R64_NW BOM_LAT BOM_LON BOM_TYPE BOM_WIND BOM_PRES BOM_TNUM BOM_CI BOM_RMW BOM_R34_NE BOM_R34_SE BOM_R34_SW BOM_R34_NW BOM_R50_NE BOM_R50_SE BOM_R50_SW BOM_R50_NW BOM_R64_NE BOM_R64_SE BOM_R64_SW BOM_R64_NW BOM_ROCI BOM_POCI BOM_EYE BOM_POS_METHOD BOM_PRES_METHOD NADI_LAT NADI_LON NADI_CAT NADI_WIND NADI_PRES WELLINGTON_LAT WELLINGTON_LON WELLINGTON_WIND WELLINGTON_PRES DS824_LAT DS824_LON DS824_STAGE DS824_WIND DS824_PRES TD9636_LAT TD9636_LON TD9636_STAGE TD9636_WIND TD9636_PRES TD9635_LAT TD9635_LON TD9635_WIND TD9635_PRES TD9635_ROCI NEUMANN_LAT NEUMANN_LON NEUMANN_CLASS NEUMANN_WIND NEUMANN_PRES MLC_LAT MLC_LON MLC_CLASS MLC_WIND MLC_PRES USA_GUST BOM_GUST BOM_GUST_PER REUNION_GUST REUNION_GUST_PER USA_SEAHGT USA_SEARAD_NE USA_SEARAD_SE USA_SEARAD_SW USA_SEARAD_NW STORM_SPEED STORM_DIR
1978231N13224 1978 71 EP MM LANE 1978-08-19 00:00:00 TS 13.2000 -135.800 30 hurdat_epa main 2145 2094 O________OO___ hurdat_epa EP121978 13.2000 -135.800 TD 30 -1 13.2000 -135.800 TC 30 13.2000 -135.800 1 30 10 275
1978231N13224 1978 71 EP MM LANE 1978-08-19 03:00:00 TS 13.2421 -136.300 main 2094 2040 P________PP___ EP121978 13.2552 -136.290 TD 30 -1 13.2552 -136.290 TC 30 13.1901 -136.341 1 30 10 275
1978231N13224 1978 71 EP MM LANE 1978-08-19 06:00:00 TS 13.2807 -136.815 30 hurdat_epa main 2040 1990 O________OP___ hurdat_epa EP121978 13.3000 -136.800 TD 30 -1 13.3000 -136.800 TC 30 13.2036 -136.876 1 30 10 274
1978231N13224 1978 71 EP MM LANE 1978-08-19 09:00:00 TS 13.3210 -137.354 main 1980 1926 P________PP___ EP121978 13.3349 -137.343 TD 30 -1 13.3349 -137.343 TC 30 13.2654 -137.397 1 30 11 276
1978231N13224 1978 71 EP MM LANE 1978-08-19 12:00:00 TS 13.4000 -137.900 30 hurdat_epa main 1926 1872 O________OO___ hurdat_epa EP121978 13.4000 -137.900 TD 30 -1 13.4000 -137.900 TC 30 13.4000 -137.900 1 30 11 281
1978231N13224 1978 71 EP MM LANE 1978-08-19 15:00:00 TS 13.5281 -138.454 main 1862 1813 P________PP___ EP121978 13.5050 -138.473 TD 32 -1 13.5050 -138.473 TC 32 13.6204 -138.381 1 33 11 288
1978231N13224 1978 71 EP MM LANE 1978-08-19 18:00:00 TS 13.7384 -138.970 35 hurdat_epa main 1803 1756 O________OP___ hurdat_epa EP121978 13.7000 -139.000 TS 35 0 13.7000 -139.000 TC 35 13.8918 -138.849 1 37 11 303
1978231N13224 1978 71 EP MM LANE 1978-08-19 21:00:00 TS 14.1031 -139.371 main 1746 1693 P________PP___ EP121978 14.0871 -139.385 TS 40 0 14.0871 -139.385 TC 40 14.1673 -139.318 1 41 10 309
1978231N13224 1978 71 EP MM LANE 1978-08-20 00:00:00 TS 14.4000 -139.800 45 hurdat_epa main 1693 1633 O________OO___ hurdat_epa EP121978 14.4000 -139.800 TS 45 0 14.4000 -139.800 TC 45 14.4000 -139.800 2 45 10 285
1978231N13224 1978 71 EP CP LANE 1978-08-20 03:00:00 TS 14.3731 -140.393 main 1633 1578 P________PP___ EP121978 14.3301 -140.421 TS 45 0 14.3301 -140.421 TC 45 14.5449 -140.283 2 46 12 264
1978231N13224 1978 71 EP CP LANE 1978-08-20 06:00:00 TS 14.2836 -141.040 45 hurdat_epa main 1578 1515 O________OP___ hurdat_epa EP121978 14.2000 -141.100 TS 45 0 14.2000 -141.100 TC 45 14.6389 -140.783 2 47 12 271
1978231N13224 1978 71 EP CP LANE 1978-08-20 09:00:00 TS 14.3971 -141.639 main 1515 1451 P________PP___ EP121978 14.3498 -141.714 TS 45 0 14.3498 -141.714 TC 45 14.6885 -141.317 2 48 12 280
1978231N13224 1978 71 EP CP LANE 1978-08-20 12:00:00 TS 14.4957 -142.230 45 hurdat_epa main 1451 1397 O________OO___ hurdat_epa EP121978 14.5000 -142.300 TS 45 0 14.5000 -142.300 TC 45 14.7000 -141.900 2 50 11 272
1978231N13224 1978 71 EP CP LANE 1978-08-20 15:00:00 TS 14.4300 -142.820 main 1397 1339 P________PP___ EP121978 14.4148 -142.850 TS 45 0 14.4148 -142.850 TC 45 14.6862 -142.562 2 48 12 263
1978231N13224 1978 71 EP CP LANE 1978-08-20 18:00:00 TS 14.3563 -143.412 45 hurdat_epa main 1339 1282 O________OP___ hurdat_epa EP121978 14.3000 -143.400 TS 45 0 14.3000 -143.400 TC 45 14.6379 -143.271 2 47 12 268
1978231N13224 1978 71 EP CP LANE 1978-08-20 21:00:00 TS 14.3815 -144.060 main 1272 1225 P________PP___ EP121978 14.3278 -144.052 TS 45 0 14.3278 -144.052 TC 45 14.5705 -143.994 2 46 12 274
1978231N13224 1978 71 EP CP LANE 1978-08-21 00:00:00 TS 14.4333 -144.633 45 hurdat_epa main 1225 1191 O________OO___ hurdat_epa EP121978 14.4000 -144.600 TS 45 0 14.4000 -144.600 TC 45 14.5000 -144.700 2 45 9 276
1978231N13224 1978 71 EP CP LANE 1978-08-21 03:00:00 TS 14.4714 -144.944 main 1191 1154 P________PP___ EP121978 14.4641 -144.748 TS 45 0 14.4641 -144.748 TC 45 14.4497 -145.375 2 45 7 274
1978231N13224 1978 71 EP CP LANE 1978-08-21 06:00:00 TS 14.4833 -145.321 45 hurdat_epa main 1154 1087 O________OP___ hurdat_epa EP121978 14.5000 -145.000 TS 45 0 14.5000 -145.000 TC 45 14.3997 -146.025 2 45 11 269
1978231N13224 1978 71 EP CP LANE 1978-08-21 09:00:00 TS 14.4454 -146.116 main 1087 1015 P________PP___ EP121978 14.4662 -145.898 TS 45 0 14.4662 -145.898 TC 45 14.3499 -146.637 2 45 16 266
1978231N13224 1978 71 EP CP LANE 1978-08-21 12:00:00 TS 14.3833 -146.967 45 hurdat_epa main 1006 970 O________OO___ hurdat_epa EP121978 14.4000 -146.900 TS 45 0 14.4000 -146.900 TC 45 14.3000 -147.200 2 45 14 265
1978231N13224 1978 71 EP CP LANE 1978-08-21 15:00:00 TS 14.3274 -147.545 main 970 928 P________PP___ EP121978 14.3494 -147.517 TS 42 0 14.3494 -147.517 TC 42 14.2247 -147.692 2 43 10 264
1978231N13224 1978 71 EP CP LANE 1978-08-21 18:00:00 TS 14.2756 -148.023 40 hurdat_epa main 928 895 O________OP___ hurdat_epa EP121978 14.3000 -148.000 TS 40 0 14.3000 -148.000 TC 40 14.1538 -148.138 2 42 9 263
1978231N13224 1978 71 EP CP LANE 1978-08-21 21:00:00 TS 14.2104 -148.508 main 895 855 P________PP___ EP121978 14.2198 -148.500 TS 40 0 14.2198 -148.500 TC 40 14.1061 -148.564 2 41 10 265
1978231N13224 1978 71 EP CP LANE 1978-08-22 00:00:00 TS 14.2000 -149.000 40 hurdat_epa main 855 809 O________OO___ hurdat_epa EP121978 14.2000 -149.000 TS 40 0 14.2000 -149.000 TC 40 14.1000 -149.000 2 40 10 277
1978231N13224 1978 71 EP CP LANE 1978-08-22 03:00:00 TS 14.3228 -149.511 main 809 755 P________PP___ EP121978 14.3423 -149.520 TS 37 0 14.3423 -149.520 TC 37 14.1678 -149.424 2 38 11 284
1978231N13224 1978 71 EP CP LANE 1978-08-22 06:00:00 TS 14.4626 -150.079 35 hurdat_epa main 748 705 O________OP___ hurdat_epa EP121978 14.5000 -150.100 TS 35 0 14.5000 -150.100 TC 35 14.2755 -149.872 2 37 12 278
1978231N13224 1978 71 EP CP LANE 1978-08-22 09:00:00 TS 14.4977 -150.752 main 698 659 P________PP___ EP121978 14.5227 -150.800 TS 32 -1 14.5227 -150.800 TC 32 14.3955 -150.384 2 36 13 272
1978231N13224 1978 71 EP CP LANE 1978-08-22 12:00:00 TS 14.5000 -151.450 30 hurdat_epa main 659 619 O________OO___ hurdat_epa EP121978 14.5000 -151.500 TD 30 -1 14.5000 -151.500 TC 30 14.5000 -151.000 2 35 13 271
1978231N13224 1978 71 EP CP LANE 1978-08-22 15:00:00 TS 14.5290 -152.085 main 619 577 P________PP___ EP121978 14.4996 -152.065 TD 30 -1 14.4996 -152.065 TC 30 14.5680 -151.787 2 33 12 272
1978231N13224 1978 71 EP CP LANE 1978-08-22 18:00:00 TS 14.5519 -152.712 30 hurdat_epa main 577 549 O________OP___ hurdat_epa EP121978 14.5000 -152.600 TD 30 -1 14.5000 -152.600 TC 30 14.6116 -152.675 2 32 12 271
1978231N13224 1978 71 EP CP LANE 1978-08-22 21:00:00 TS 14.5480 -153.363 main 549 524 P________PP___ EP121978 14.4998 -153.178 TD 30 -1 14.4998 -153.178 TC 30 14.6242 -153.600 2 31 13 269
1978231N13224 1978 71 EP CP LANE 1978-08-23 00:00:00 TS 14.5333 -154.033 30 hurdat_epa main 524 503 O________OO___ hurdat_epa EP121978 14.5000 -153.800 TD 30 -1 14.5000 -153.800 TC 30 14.6000 -154.500 1 30 13 269
1978231N13224 1978 71 EP CP LANE 1978-08-23 03:00:00 TS 14.5307 -154.751 main 501 493 P________PP___ EP121978 14.5075 -154.500 TD 30 -1 14.5075 -154.500 TC 30 14.5318 -155.351 1 30 14 269
1978231N13224 1978 71 EP CP LANE 1978-08-23 06:00:00 TS 14.5050 -155.460 30 hurdat_epa main 492 492 O________OP___ hurdat_epa EP121978 14.5000 -155.200 TD 30 -1 14.5000 -155.200 TC 30 14.4301 -156.158 1 30 13 266
1978231N13224 1978 71 EP CP LANE 1978-08-23 09:00:00 TS 14.4324 -156.092 main 505 505 P________PP___ EP121978 14.4647 -155.815 TD 30 -1 14.4647 -155.815 TC 30 14.3133 -156.886 1 30 12 262
1978231N13224 1978 71 EP CP LANE 1978-08-23 12:00:00 TS 14.3333 -156.683 30 hurdat_epa main 525 525 O________OO___ hurdat_epa EP121978 14.4000 -156.400 TD 30 -1 14.4000 -156.400 TC 30 14.2000 -157.500 1 30 12 260
1978231N13224 1978 71 EP CP LANE 1978-08-23 15:00:00 TS 14.2357 -157.269 main 552 552 P________PP___ EP121978 14.3223 -157.000 TD 27 -1 14.3223 -157.000 TC 27 14.1050 -157.979 1 28 11 259
1978231N13224 1978 71 EP CP LANE 1978-08-23 18:00:00 TS 14.1212 -157.825 25 hurdat_epa main 581 581 O________OP___ hurdat_epa EP121978 14.2000 -157.600 TD 25 -1 14.2000 -157.600 TC 25 14.0270 -158.347 1 27 11 256
1978231N13224 1978 71 EP CP LANE 1978-08-23 21:00:00 TS 13.9840 -158.341 main 614 614 P________PP___ EP121978 14.0178 -158.200 TD 25 -1 14.0178 -158.200 TC 25 13.9607 -158.642 1 26 10 254
1978231N13224 1978 71 EP CP LANE 1978-08-24 00:00:00 TS 13.8333 -158.833 25 hurdat_epa main 659 O________OO___ hurdat_epa EP121978 13.8000 -158.800 TD 25 -1 13.8000 -158.800 TC 25 13.9000 -158.900 1 25 10 253

IBTrACS Databaseについて

本データベースは、米国NOAAが公開する1842年以降の世界の熱帯低気圧のベストトラックデータアーカイブInternational Best Track Archive for Climate Stewardship (IBTrACS)を、ウェブで閲覧しやすい形式に変換したものです。

最終更新日:2021-12-03